createdAt,value
2023-04-11T00:00:54.891Z,56.18
2023-04-11T00:03:22.403Z,58.72
2023-04-11T00:05:49.115Z,62.91
2023-04-11T00:08:15.670Z,61.57
2023-04-11T00:10:43.215Z,62.30
2023-04-11T00:13:11.394Z,69.34
2023-04-11T00:15:39.323Z,65.81
2023-04-11T00:18:06.675Z,66.26
2023-04-11T00:20:33.259Z,70.52
2023-04-11T00:22:59.708Z,68.23
2023-04-11T00:25:27.017Z,66.27
2023-04-11T00:27:54.060Z,66.24
2023-04-11T00:30:20.549Z,65.82
2023-04-11T00:32:47.744Z,67.15
2023-04-11T00:35:14.223Z,66.44
2023-04-11T00:37:44.158Z,67.44
2023-04-11T00:40:12.500Z,65.63
2023-04-11T00:42:39.696Z,66.73
2023-04-11T00:45:06.933Z,68.31
2023-04-11T00:47:34.315Z,67.04
2023-04-11T00:50:01.295Z,67.43
2023-04-11T00:52:27.876Z,67.03
2023-04-11T00:54:54.391Z,68.39
2023-04-11T00:57:22.743Z,69.91
2023-04-11T00:59:49.333Z,69.93
2023-04-11T01:02:15.843Z,69.87
2023-04-11T01:04:43.291Z,69.64
2023-04-11T01:07:11.142Z,72.23
2023-04-11T01:09:38.950Z,75.36
2023-04-11T01:12:06.392Z,73.70
2023-04-11T01:14:32.846Z,73.49
2023-04-11T01:17:01.991Z,74.66
2023-04-11T01:19:29.665Z,74.58
2023-04-11T01:21:57.840Z,72.74
2023-04-11T01:24:24.461Z,74.60
2023-04-11T01:26:51.968Z,75.79
2023-04-11T01:29:18.496Z,73.70
2023-04-11T01:31:45.361Z,76.29
2023-04-11T01:34:14.346Z,74.47
2023-04-11T01:36:42.359Z,73.47
2023-04-11T01:39:08.991Z,74.42
2023-04-11T01:41:35.958Z,74.42
2023-04-11T01:44:04.157Z,73.33
2023-04-11T01:46:31.163Z,73.34
2023-04-11T01:49:01.479Z,71.31
2023-04-11T01:51:28.440Z,72.58
2023-04-11T01:53:55.279Z,70.75
2023-04-11T01:56:22.100Z,70.85
2023-04-11T01:58:48.712Z,71.39
2023-04-11T02:01:19.409Z,71.10
2023-04-11T02:03:46.411Z,71.19
2023-04-11T02:06:13.101Z,69.76
2023-04-11T02:08:39.568Z,69.33
2023-04-11T02:11:08.082Z,71.59
2023-04-11T02:13:35.452Z,72.94
2023-04-11T02:16:11.406Z,71.71
2023-04-11T02:18:38.148Z,70.54
2023-04-11T02:21:05.939Z,69.72
2023-04-11T02:23:32.718Z,69.03
2023-04-11T02:25:59.214Z,70.34
2023-04-11T02:28:25.646Z,72.09
2023-04-11T02:30:52.237Z,70.50
2023-04-11T02:33:19.365Z,72.74
2023-04-11T02:35:46.838Z,70.54
2023-04-11T02:38:13.756Z,70.54
2023-04-11T02:40:40.631Z,68.91
2023-04-11T02:43:07.168Z,69.59
2023-04-11T02:45:33.563Z,69.40
2023-04-11T02:48:00.012Z,69.13
2023-04-11T02:50:27.060Z,70.05
2023-04-11T02:52:53.989Z,69.43
2023-04-11T02:55:23.183Z,69.11
2023-04-11T02:57:50.570Z,69.56
2023-04-11T03:00:19.267Z,69.35
2023-04-11T03:02:45.946Z,68.26
2023-04-11T03:05:12.851Z,68.37
2023-04-11T03:07:40.507Z,68.76
2023-04-11T03:10:07.791Z,69.55
2023-04-11T03:12:34.254Z,70.00
2023-04-11T03:15:00.664Z,67.98
2023-04-11T03:17:27.151Z,67.58
2023-04-11T03:19:53.560Z,68.51
2023-04-11T03:22:20.030Z,67.93
2023-04-11T03:24:46.975Z,67.44
2023-04-11T03:27:13.393Z,69.32
2023-04-11T03:29:39.816Z,69.37
2023-04-11T03:32:06.493Z,71.27
2023-04-11T03:34:33.042Z,67.73
2023-04-11T03:36:59.460Z,67.94
2023-04-11T03:39:25.904Z,68.04
2023-04-11T03:41:52.399Z,68.41
2023-04-11T03:44:18.809Z,70.32
2023-04-11T03:46:45.377Z,67.36
2023-04-11T03:49:11.849Z,66.54
2023-04-11T03:51:38.286Z,66.85
2023-04-11T03:54:04.751Z,68.46
2023-04-11T03:56:31.147Z,67.77
2023-04-11T03:58:57.704Z,70.33
2023-04-11T04:01:24.242Z,68.94
2023-04-11T04:03:50.928Z,72.52
2023-04-11T04:06:17.612Z,72.99
2023-04-11T04:08:44.601Z,69.57
2023-04-11T04:11:11.070Z,68.09
2023-04-11T04:13:37.502Z,68.88
2023-04-11T04:16:04.361Z,67.79
2023-04-11T04:18:30.881Z,67.34
2023-04-11T04:20:57.296Z,70.69
2023-04-11T04:23:23.886Z,67.96
2023-04-11T04:25:51.329Z,67.32
2023-04-11T04:28:20.476Z,68.69
2023-04-11T04:30:53.982Z,68.40
2023-04-11T04:33:21.584Z,68.76
2023-04-11T04:35:48.264Z,69.08
2023-04-11T04:38:17.607Z,66.72
2023-04-11T04:40:44.386Z,65.15
2023-04-11T04:43:18.388Z,67.43
2023-04-11T04:45:45.500Z,67.03
2023-04-11T04:48:15.345Z,68.81
2023-04-11T04:50:41.786Z,69.39
2023-04-11T04:53:08.253Z,68.08
2023-04-11T04:55:35.502Z,67.36
2023-04-11T04:58:01.909Z,69.65
2023-04-11T05:00:28.344Z,67.36
2023-04-11T05:02:55.081Z,70.21
2023-04-11T05:05:21.720Z,72.41
2023-04-11T05:07:48.370Z,67.34
2023-04-11T05:10:14.822Z,65.67
2023-04-11T05:12:41.214Z,66.43
2023-04-11T05:15:11.505Z,64.31
2023-04-11T05:17:38.467Z,71.09
2023-04-11T05:20:07.233Z,66.86
2023-04-11T05:22:33.667Z,66.97
2023-04-11T05:25:01.032Z,67.69
2023-04-11T05:27:27.474Z,68.67
2023-04-11T05:29:54.305Z,71.72
2023-04-11T05:32:20.796Z,72.17
2023-04-11T05:34:58.153Z,73.62
2023-04-11T05:37:26.002Z,72.10
2023-04-11T05:39:52.758Z,68.46
2023-04-11T05:42:19.250Z,70.98
2023-04-11T05:44:45.757Z,70.24
2023-04-11T05:47:12.209Z,70.75
2023-04-11T05:49:38.631Z,71.74
2023-04-11T05:52:05.183Z,72.03
2023-04-11T05:54:33.576Z,69.86
2023-04-11T05:57:01.881Z,72.43
2023-04-11T05:59:31.700Z,72.02
2023-04-11T06:01:59.010Z,72.28
2023-04-11T06:04:26.038Z,70.11
2023-04-11T06:06:53.693Z,71.04
2023-04-11T06:09:20.440Z,69.07
2023-04-11T06:11:46.915Z,72.42
2023-04-11T06:14:13.363Z,70.19
2023-04-11T06:16:40.047Z,71.62
2023-04-11T06:19:06.771Z,70.57
2023-04-11T06:21:33.254Z,68.84
2023-04-11T06:24:05.667Z,69.40
2023-04-11T06:26:32.138Z,68.36
2023-04-11T06:28:58.637Z,65.41
2023-04-11T06:31:25.540Z,63.83
2023-04-11T06:33:51.997Z,60.70
2023-04-11T06:36:18.532Z,63.83
2023-04-11T06:38:45.215Z,62.04
2023-04-11T06:41:11.628Z,61.52
2023-04-11T06:43:38.110Z,61.60
2023-04-11T06:46:07.927Z,58.85
2023-04-11T06:48:34.529Z,61.82
2023-04-11T06:51:01.075Z,60.43
2023-04-11T06:53:27.626Z,60.87
2023-04-11T06:55:54.142Z,60.77
2023-04-11T06:58:20.648Z,61.33
2023-04-11T07:00:47.079Z,61.29
2023-04-11T07:03:14.032Z,60.30
2023-04-11T07:05:40.955Z,61.61
2023-04-11T07:08:07.416Z,62.56
2023-04-11T07:10:33.836Z,61.77
2023-04-11T07:13:00.284Z,64.66
2023-04-11T07:15:27.715Z,68.18
2023-04-11T07:17:54.328Z,69.17
2023-04-11T07:20:20.901Z,69.23
2023-04-11T07:22:47.357Z,74.04
2023-04-11T07:25:14.167Z,81.30
2023-04-11T07:27:43.700Z,81.96
2023-04-11T07:30:10.647Z,81.68
2023-04-11T07:32:37.186Z,81.43
2023-04-11T07:35:03.833Z,81.59
2023-04-11T07:37:30.941Z,81.74
2023-04-11T07:39:57.383Z,82.35
2023-04-11T07:42:23.812Z,82.94
2023-04-11T07:44:50.221Z,82.65
2023-04-11T07:47:16.712Z,79.19
2023-04-11T07:49:43.179Z,80.88
2023-04-11T07:52:10.815Z,80.25
2023-04-11T07:54:38.980Z,80.41
2023-04-11T07:57:05.537Z,80.41
2023-04-11T07:59:31.988Z,80.36
2023-04-11T08:02:01.106Z,81.13
2023-04-11T08:04:32.523Z,80.21
2023-04-11T08:06:59.266Z,77.95
2023-04-11T08:09:26.527Z,80.63
2023-04-11T08:11:53.429Z,80.96
2023-04-11T08:14:19.866Z,78.11
2023-04-11T08:16:46.306Z,81.54
2023-04-11T08:19:13.131Z,80.13
2023-04-11T08:21:39.668Z,77.74
2023-04-11T08:24:06.321Z,77.30
2023-04-11T08:26:32.811Z,81.03
2023-04-11T08:28:59.260Z,77.91
2023-04-11T08:31:26.872Z,79.26
2023-04-11T08:33:53.358Z,78.28
2023-04-11T08:36:20.024Z,79.59
2023-04-11T08:38:46.554Z,77.36
2023-04-11T08:41:14.382Z,75.87
2023-04-11T08:43:40.890Z,76.32
2023-04-11T08:46:08.276Z,77.30
2023-04-11T08:48:34.940Z,73.27
2023-04-11T08:51:01.844Z,74.68
2023-04-11T08:53:30.125Z,74.72
2023-04-11T08:55:56.622Z,74.39
2023-04-11T08:58:23.112Z,73.79
2023-04-11T09:00:49.548Z,73.74
2023-04-11T09:03:17.170Z,74.14
2023-04-11T09:05:46.300Z,69.39
2023-04-11T09:08:14.678Z,70.08
2023-04-11T09:10:45.236Z,70.74
2023-04-11T09:13:31.965Z,69.05
2023-04-11T09:16:14.503Z,68.53
2023-04-11T09:18:44.280Z,66.39
2023-04-11T09:21:13.195Z,68.41
2023-04-11T09:23:39.637Z,68.61
2023-04-11T09:26:07.971Z,66.57
2023-04-11T09:28:44.532Z,65.58
2023-04-11T09:31:13.089Z,68.23
2023-04-11T09:33:51.751Z,66.09
2023-04-11T09:36:23.061Z,66.85
2023-04-11T09:38:49.608Z,64.26
2023-04-11T09:41:29.772Z,66.46
2023-04-11T09:43:56.519Z,66.82
2023-04-11T09:46:23.768Z,66.09
2023-04-11T09:48:52.237Z,65.31
2023-04-11T09:51:31.737Z,64.11
2023-04-11T09:54:03.367Z,60.68
2023-04-11T09:56:31.063Z,60.14
2023-04-11T09:58:59.947Z,60.07
2023-04-11T10:01:27.311Z,59.74
2023-04-11T10:03:55.683Z,58.11
2023-04-11T10:06:34.118Z,59.58
2023-04-11T10:09:12.223Z,57.15
2023-04-11T10:11:43.291Z,55.45
2023-04-11T10:14:29.991Z,59.20
2023-04-11T10:17:16.922Z,57.43
2023-04-11T10:19:45.618Z,60.98
2023-04-11T10:22:41.044Z,57.17
2023-04-11T10:25:20.500Z,57.56
2023-04-11T10:27:57.057Z,56.27
2023-04-11T10:30:43.732Z,54.45
2023-04-11T10:33:17.370Z,53.58
2023-04-11T10:36:11.379Z,51.47
2023-04-11T10:38:43.873Z,53.30
2023-04-11T10:41:33.327Z,53.85
2023-04-11T10:44:32.222Z,54.33
2023-04-11T10:46:58.805Z,51.38
2023-04-11T10:49:32.798Z,55.50
2023-04-11T10:52:21.768Z,65.89
2023-04-11T10:54:53.266Z,63.35
2023-04-11T10:57:21.109Z,66.62
2023-04-11T10:59:50.454Z,66.11
2023-04-11T11:02:17.204Z,63.77
2023-04-11T11:04:43.810Z,64.75
2023-04-11T11:07:16.950Z,62.50
2023-04-11T11:09:49.207Z,60.56
2023-04-11T11:12:16.825Z,58.04
2023-04-11T11:14:45.183Z,55.54
2023-04-11T11:17:13.199Z,55.59
2023-04-11T11:19:47.088Z,53.99
2023-04-11T11:22:16.696Z,51.24
2023-04-11T11:24:43.128Z,51.08
2023-04-11T11:27:23.993Z,51.46
2023-04-11T11:29:51.497Z,51.50
2023-04-11T11:32:28.526Z,50.66
2023-04-11T11:34:57.371Z,50.32
2023-04-11T11:37:24.012Z,49.23
2023-04-11T11:39:50.863Z,48.60
2023-04-11T11:42:18.059Z,52.17
2023-04-11T11:44:44.497Z,50.25
2023-04-11T11:47:14.913Z,49.52
2023-04-11T11:49:49.448Z,50.31
2023-04-11T11:52:41.844Z,49.17
2023-04-11T11:55:29.159Z,47.00
2023-04-11T11:58:00.879Z,45.92
2023-04-11T12:00:29.032Z,46.11
2023-04-11T12:02:56.848Z,43.86
2023-04-11T12:05:33.077Z,45.57
2023-04-11T12:08:05.202Z,45.25
2023-04-11T12:10:47.623Z,44.91
2023-04-11T12:13:21.217Z,45.78
2023-04-11T12:16:06.285Z,42.82
2023-04-11T12:18:33.484Z,45.32
2023-04-11T12:20:59.917Z,44.17
2023-04-11T12:23:26.357Z,41.37
2023-04-11T12:25:52.900Z,40.73
2023-04-11T12:28:19.372Z,41.35
2023-04-11T12:30:45.931Z,41.28
2023-04-11T12:33:12.393Z,40.00
2023-04-11T12:35:38.824Z,39.90
2023-04-11T12:38:06.458Z,40.39
2023-04-11T12:40:32.889Z,38.96
2023-04-11T12:42:59.544Z,39.10
2023-04-11T12:45:26.472Z,38.85
2023-04-11T12:47:53.454Z,39.90
2023-04-11T12:50:22.761Z,40.51
2023-04-11T12:52:49.319Z,41.56
2023-04-11T12:55:16.041Z,39.28
2023-04-11T12:57:43.669Z,40.51
2023-04-11T13:00:11.559Z,41.08
2023-04-11T13:02:43.871Z,41.54
2023-04-11T13:05:15.361Z,41.18
2023-04-11T13:07:44.673Z,40.91
2023-04-11T13:10:11.941Z,41.46
2023-04-11T13:12:43.771Z,41.85
2023-04-11T13:15:15.277Z,40.70
2023-04-11T13:17:42.469Z,40.63
2023-04-11T13:20:10.604Z,41.68
2023-04-11T13:22:38.210Z,42.18
2023-04-11T13:25:05.280Z,41.28
2023-04-11T13:27:32.112Z,42.96
2023-04-11T13:29:58.644Z,42.31
2023-04-11T13:32:25.115Z,43.99
2023-04-11T13:34:51.639Z,45.07
2023-04-11T13:37:18.087Z,42.38
2023-04-11T13:39:44.612Z,42.71
2023-04-11T13:42:12.612Z,42.59
2023-04-11T13:44:39.149Z,41.36
2023-04-11T13:47:06.062Z,44.18
2023-04-11T13:49:32.467Z,44.91
2023-04-11T13:51:58.888Z,43.04
2023-04-11T13:54:26.145Z,45.08
2023-04-11T13:56:52.615Z,42.93
2023-04-11T13:59:19.115Z,45.57
2023-04-11T14:01:45.760Z,48.21
2023-04-11T14:04:12.445Z,56.17
2023-04-11T14:06:39.793Z,56.86
2023-04-11T14:09:06.333Z,60.88
2023-04-11T14:11:32.749Z,62.42
2023-04-11T14:13:59.182Z,63.46
2023-04-11T14:16:25.669Z,63.52
2023-04-11T14:18:52.153Z,63.70
2023-04-11T14:21:18.927Z,60.97
2023-04-11T14:23:45.466Z,58.68
2023-04-11T14:26:11.931Z,58.36
2023-04-11T14:28:38.418Z,58.36
2023-04-11T14:31:05.237Z,58.37
2023-04-11T14:33:32.256Z,58.06
2023-04-11T14:35:58.698Z,57.37
2023-04-11T14:38:25.319Z,56.44
2023-04-11T14:40:51.746Z,55.87
2023-04-11T14:43:18.270Z,55.26
2023-04-11T14:45:44.740Z,53.76
2023-04-11T14:48:11.665Z,54.99
2023-04-11T14:50:38.183Z,54.18
2023-04-11T14:53:04.600Z,54.90
2023-04-11T14:55:31.219Z,52.49
2023-04-11T14:57:57.758Z,53.52
2023-04-11T15:00:24.832Z,55.58
2023-04-11T15:02:57.231Z,53.61
2023-04-11T15:05:24.461Z,50.53
2023-04-11T15:07:52.247Z,51.38
2023-04-11T15:10:21.054Z,49.88
2023-04-11T15:12:47.807Z,52.17
2023-04-11T15:15:14.726Z,52.42
2023-04-11T15:17:43.617Z,51.32
2023-04-11T15:20:11.791Z,51.89
2023-04-11T15:22:43.373Z,51.10
2023-04-11T15:25:15.465Z,51.87
2023-04-11T15:27:42.677Z,50.83
2023-04-11T15:30:10.335Z,54.62
2023-04-11T15:32:42.075Z,55.95
2023-04-11T15:35:09.144Z,55.83
2023-04-11T15:37:35.645Z,57.90
2023-04-11T15:40:05.898Z,54.60
2023-04-11T15:42:35.139Z,54.66
2023-04-11T15:45:01.909Z,55.17
2023-04-11T15:47:28.608Z,56.48
2023-04-11T15:49:55.052Z,54.51
2023-04-11T15:52:21.512Z,55.42
2023-04-11T15:54:47.928Z,55.20
2023-04-11T15:57:14.358Z,55.29
2023-04-11T15:59:41.478Z,57.44
2023-04-11T16:02:08.004Z,57.38
2023-04-11T16:04:38.415Z,55.94
2023-04-11T16:07:06.597Z,56.57
2023-04-11T16:09:33.870Z,55.11
2023-04-11T16:12:01.326Z,56.29
2023-04-11T16:14:29.248Z,53.78
2023-04-11T16:16:57.327Z,54.66
2023-04-11T16:19:24.084Z,52.22
2023-04-11T16:21:50.653Z,51.59
2023-04-11T16:24:18.816Z,51.98
2023-04-11T16:26:45.373Z,52.43
2023-04-11T16:29:11.775Z,51.55
2023-04-11T16:31:38.385Z,50.02
2023-04-11T16:34:04.832Z,51.91
2023-04-11T16:36:32.907Z,50.16
2023-04-11T16:38:59.350Z,51.18
2023-04-11T16:41:26.024Z,48.36
2023-04-11T16:43:52.450Z,49.01
2023-04-11T16:46:19.227Z,49.82
2023-04-11T16:48:45.728Z,48.46
2023-04-11T16:51:13.237Z,49.10
2023-04-11T16:53:40.699Z,48.55
2023-04-11T16:56:07.391Z,48.02
2023-04-11T16:58:33.918Z,47.17
2023-04-11T17:01:01.577Z,46.63
2023-04-11T17:03:28.415Z,47.58
2023-04-11T17:05:55.178Z,47.96
2023-04-11T17:08:21.693Z,48.78
2023-04-11T17:10:48.231Z,48.17
2023-04-11T17:13:15.895Z,47.90
2023-04-11T17:15:42.390Z,47.14
2023-04-11T17:18:08.955Z,47.78
2023-04-11T17:20:36.044Z,46.86
2023-04-11T17:23:02.545Z,46.80
2023-04-11T17:25:30.027Z,48.08
2023-04-11T17:27:57.306Z,48.95
2023-04-11T17:30:23.755Z,47.95
2023-04-11T17:32:50.210Z,48.10
2023-04-11T17:35:16.666Z,47.78
2023-04-11T17:37:43.082Z,51.73
2023-04-11T17:40:13.113Z,52.11
2023-04-11T17:42:40.509Z,51.41
2023-04-11T17:51:09.036Z,49.20
2023-04-11T17:53:35.824Z,48.62
2023-04-11T17:56:08.390Z,48.57
2023-04-11T17:58:40.075Z,48.30
2023-04-11T18:01:09.046Z,49.00
2023-04-11T18:03:39.668Z,49.02
2023-04-11T18:06:10.956Z,48.81
2023-04-11T18:11:09.619Z,50.54
2023-04-11T18:13:36.119Z,51.45
2023-04-11T18:16:02.545Z,52.24
2023-04-11T18:18:29.013Z,51.70
2023-04-11T18:21:01.521Z,52.61
2023-04-11T18:23:40.123Z,52.15
2023-04-11T18:26:09.375Z,53.40
2023-04-11T18:28:38.852Z,52.64
2023-04-11T18:31:11.906Z,52.13
2023-04-11T18:33:42.850Z,51.98
2023-04-11T18:36:09.782Z,51.67
2023-04-11T18:38:39.501Z,52.65
2023-04-11T18:41:08.896Z,51.92
2023-04-11T18:43:39.034Z,53.14
2023-04-11T18:46:09.616Z,52.94
2023-04-11T18:48:36.444Z,52.87
2023-04-11T18:51:04.841Z,53.53
2023-04-11T18:53:31.314Z,52.95
2023-04-11T18:55:58.059Z,54.48
2023-04-11T18:58:26.100Z,54.52
2023-04-11T19:00:53.731Z,55.39
2023-04-11T19:03:20.924Z,55.79
2023-04-11T19:05:48.146Z,56.13
2023-04-11T19:08:14.783Z,56.14
2023-04-11T19:10:41.235Z,56.02
2023-04-11T19:13:07.746Z,56.35
2023-04-11T19:15:34.200Z,56.02
2023-04-11T19:18:01.621Z,56.49
2023-04-11T19:20:29.340Z,56.64
2023-04-11T19:22:55.753Z,56.41
2023-04-11T19:25:22.233Z,56.66
2023-04-11T19:27:48.939Z,56.83
2023-04-11T19:30:15.383Z,57.20
2023-04-11T19:32:43.905Z,58.23
2023-04-11T19:35:11.316Z,58.50
2023-04-11T19:37:38.393Z,58.55
2023-04-11T19:40:13.683Z,59.09
2023-04-11T19:42:40.519Z,61.71
2023-04-11T19:45:09.571Z,60.00
2023-04-11T19:47:36.231Z,59.05
2023-04-11T19:50:02.901Z,58.27
2023-04-11T19:52:29.382Z,59.05
2023-04-11T19:54:56.787Z,58.62
2023-04-11T19:57:25.513Z,60.38
2023-04-11T19:59:51.955Z,59.53
2023-04-11T20:02:18.591Z,60.19
2023-04-11T20:04:45.828Z,60.59
2023-04-11T20:07:12.631Z,60.93
2023-04-11T20:09:39.054Z,60.86
2023-04-11T20:12:06.627Z,60.68
2023-04-11T20:14:33.418Z,61.09
2023-04-11T20:16:59.951Z,61.63
2023-04-11T20:19:31.542Z,61.62
2023-04-11T20:22:00.484Z,61.85
2023-04-11T20:24:27.702Z,61.87
2023-04-11T20:26:54.362Z,62.31
2023-04-11T20:29:21.164Z,62.54
2023-04-11T20:31:47.592Z,61.90
2023-04-11T20:34:13.989Z,61.07
2023-04-11T20:36:40.537Z,62.12
2023-04-11T20:39:07.035Z,61.92
2023-04-11T20:41:33.921Z,61.81
2023-04-11T20:44:00.533Z,61.81
2023-04-11T20:47:12.864Z,62.20
2023-04-11T20:49:56.081Z,62.07
2023-04-11T20:55:49.092Z,62.17
2023-04-11T20:58:18.523Z,62.00
2023-04-11T21:00:45.021Z,61.52
2023-04-11T21:03:11.663Z,61.99
2023-04-11T21:05:39.985Z,61.75
2023-04-11T21:08:06.850Z,62.77
2023-04-11T21:10:33.292Z,61.37
2023-04-11T21:12:59.695Z,62.05
2023-04-11T21:15:26.126Z,61.86
2023-04-11T21:17:52.739Z,61.38
2023-04-11T21:20:20.184Z,62.50
2023-04-11T21:22:52.799Z,62.27
2023-04-11T21:25:19.742Z,61.38
2023-04-11T21:27:46.643Z,61.42
2023-04-11T21:30:14.402Z,61.68
2023-04-11T21:32:41.049Z,61.58
2023-04-11T21:35:11.343Z,60.38
2023-04-11T21:37:38.392Z,59.93
2023-04-11T21:40:05.474Z,61.04
2023-04-11T21:42:31.910Z,61.33
2023-04-11T21:44:58.381Z,60.47
2023-04-11T21:47:24.876Z,62.35
2023-04-11T21:49:51.329Z,61.64
2023-04-11T21:52:17.818Z,62.35
2023-04-11T21:54:44.265Z,62.46
2023-04-11T21:57:10.939Z,61.60
2023-04-11T21:59:39.115Z,61.97
2023-04-11T22:02:06.461Z,61.97
2023-04-11T22:05:09.192Z,62.95
2023-04-11T22:07:46.171Z,62.73
2023-04-11T22:10:12.949Z,64.05
2023-04-11T22:12:40.204Z,64.12
2023-04-11T22:15:07.681Z,64.91
2023-04-11T22:17:34.860Z,63.92
2023-04-11T22:20:01.365Z,65.13
2023-04-11T22:22:28.637Z,64.35
2023-04-11T22:28:18.203Z,63.89
2023-04-11T22:31:12.016Z,64.36
2023-04-11T22:33:38.422Z,63.78
2023-04-11T22:36:11.631Z,64.07
2023-04-11T22:38:38.224Z,63.07
2023-04-11T22:41:04.789Z,62.97
2023-04-11T22:43:31.512Z,63.07
2023-04-11T22:45:57.964Z,61.90
2023-04-11T22:48:29.669Z,62.43
2023-04-11T22:50:59.108Z,63.64
2023-04-11T22:53:25.983Z,62.83
2023-04-11T22:55:52.420Z,60.82
2023-04-11T22:58:28.073Z,59.68
2023-04-11T23:01:03.489Z,59.47
2023-04-11T23:03:30.077Z,59.51
2023-04-11T23:05:56.463Z,59.52
2023-04-11T23:08:22.885Z,59.12
2023-04-11T23:11:24.814Z,59.76
2023-04-11T23:13:52.634Z,59.47
2023-04-11T23:16:19.345Z,59.38
2023-04-11T23:18:45.770Z,60.05
2023-04-11T23:21:15.234Z,61.48
2023-04-11T23:23:41.728Z,61.12
2023-04-11T23:26:08.246Z,60.25
2023-04-11T23:28:34.660Z,61.15
2023-04-11T23:31:01.436Z,61.57
2023-04-11T23:33:27.959Z,61.28
2023-04-11T23:35:54.510Z,62.56
2023-04-11T23:38:21.429Z,62.63
2023-04-11T23:40:53.878Z,62.35
2023-04-11T23:43:20.281Z,63.04
2023-04-11T23:45:47.209Z,62.18
2023-04-11T23:48:13.675Z,61.43
2023-04-11T23:50:40.876Z,62.74
2023-04-11T23:53:08.249Z,60.56
2023-04-11T23:55:35.159Z,61.33
2023-04-11T23:58:01.671Z,61.39
